SAZR/RSA METAR and TAF weather

Enter ICAO airport designator
Station Type Date Time Source
SAZR METAR 2020/09/06 05:20 UTC NOAA

SAZR 060520Z 18004KT 5000 RA OVC030 07/07 Q1028


Station Type Date Time Source
SAZR Decoded METAR 2020/09/06 05:20 UTC NOAA

Santa Rosa Aerodrome, Argentina (SAZR) 36-34S 064-16W 191M
Sep 06, 2020 - 01:20 AM EDT / 2020.09.06 0520 UTC
Wind: from the S (180 degrees) at 5 MPH (4 KT):0
Visibility: 3 mile(s):0
Sky conditions: overcast
Weather: rain
Temperature: 44 F (7 C)
Dew Point: 44 F (7 C)
Relative Humidity: 100%
Pressure (altimeter): 30.36 in. Hg (1028 hPa)
ob: SAZR 060520Z 18004KT 5000 RA OVC030 07/07 Q1028
cycle: 5

Station Type Date Time Source
SAZR TAF 2020/06/26 12:09 UTC NOAA

TAF SAZR 261100Z 2612/2712 12005KT CAVOK TX11/2618Z TN02/2710Z
BECMG 2618/2620 9999 SCT020 SCT040
TEMPO 2700/2706 8000 DZ
BECMG 2706/2708 17005KT CAVOK

Example: see airport list